Portada
METAR-TAF:

METAR-TAF

Aeropuertos :

Lyon, Francia

latitud: 45-43N, longitud: 004-57E, altitud: 200 m

Observación

El informe se hizo hace 39 minutos, a las 08:30 UTC
Viento 6 kt del norte, variando entre noroeste y norte-noreste
Temperatura 24°C
Humedad 65%
Presión 1017 hPa
Visibilidad 10 km o más
Escasas nubes a una altura de 2300 ft
Cielo nuboso a una altura de 4000 ft
Cielo cubierto a una altura de 5200 ft

METAR: LFLY 140830Z AUTO 35006KT 310V030 9999 FEW023 BKN040 OVC052 24/17 Q1017 NOSIG

Hora: 11:09 (09:09 UTC)

Pronóstico

El informe se hizo hace 33 minutos, a las 08:36 UTC
Pronóstico válido del 14 a las 08 UTC al 15 a las 06 UTC
Viento 6 kt del norte
Visibilidad 10 km o más
sin nubes por debajo de 1500 m y sin presencia de cumulonimbus.
Temporalmente
del 14 a las 08 UTC al 14 a las 11 UTC
Escasas nubes a una altura de 2500 ft
Cielo nuboso a una altura de 4000 ft

TAF: LFLY 140836Z 1408/1506 35006KT CAVOK TEMPO 1408/1411 FEW025 BKN040

Observaciones y pronósticos meteorológicos de más de 4000 aeropuertos (mensajes METAR y TAF).

Los puntos amarillos y rojos representan las estaciones disponibles.

Ponga el ratón en el punto deseado para ver el nombre de la estación.

Haga clic para ver las observaciones y los pronósticos meteorológicos.

Para cambiar el mapa : haga clic en los botones verdes con una cruz de color negro para hacer un zoom, en el botón verde con un guión para alejar o en las flechas verdes para mapas adyacentes.


METAR-TAF: